createdAt,value
2022-08-31T00:01:44.584Z,19.86
2022-08-31T00:04:13.103Z,19.86
2022-08-31T00:06:39.548Z,19.87
2022-08-31T00:09:07.070Z,19.87
2022-08-31T00:11:36.069Z,19.90
2022-08-31T00:14:12.432Z,19.89
2022-08-31T00:16:43.329Z,19.91
2022-08-31T00:19:10.426Z,19.88
2022-08-31T00:21:39.020Z,19.88
2022-08-31T00:24:06.250Z,19.87
2022-08-31T00:26:32.903Z,19.84
2022-08-31T00:28:59.394Z,19.77
2022-08-31T00:31:25.898Z,19.67
2022-08-31T00:33:52.664Z,19.65
2022-08-31T00:36:24.516Z,19.65
2022-08-31T00:38:51.885Z,19.53
2022-08-31T00:41:21.596Z,19.60
2022-08-31T00:43:55.260Z,19.61
2022-08-31T00:46:30.777Z,19.52
2022-08-31T00:49:10.880Z,19.48
2022-08-31T00:51:49.685Z,19.41
2022-08-31T00:54:20.392Z,19.33
2022-08-31T00:56:47.243Z,19.23
2022-08-31T00:59:15.046Z,19.24
2022-08-31T01:01:41.656Z,19.20
2022-08-31T01:04:08.068Z,19.16
2022-08-31T01:06:34.868Z,19.13
2022-08-31T01:09:04.508Z,19.14
2022-08-31T01:11:31.774Z,19.04
2022-08-31T01:13:58.523Z,18.80
2022-08-31T01:16:33.154Z,18.74
2022-08-31T01:19:02.636Z,18.63
2022-08-31T01:21:37.964Z,18.53
2022-08-31T01:24:05.015Z,18.47
2022-08-31T01:26:32.821Z,18.34
2022-08-31T01:29:03.957Z,18.26
2022-08-31T01:31:41.119Z,18.07
2022-08-31T01:34:07.920Z,18.00
2022-08-31T01:36:36.868Z,17.84
2022-08-31T01:39:05.665Z,17.65
2022-08-31T01:41:32.366Z,17.54
2022-08-31T01:43:58.841Z,17.51
2022-08-31T01:46:25.412Z,17.32
2022-08-31T01:48:52.429Z,17.34
2022-08-31T01:51:21.926Z,17.20
2022-08-31T01:53:49.803Z,17.14
2022-08-31T01:56:23.885Z,17.03
2022-08-31T01:58:50.560Z,16.91
2022-08-31T02:01:37.874Z,16.76
2022-08-31T02:04:05.806Z,16.84
2022-08-31T02:06:33.409Z,16.93
2022-08-31T02:09:01.010Z,17.02
2022-08-31T02:11:27.355Z,17.13
2022-08-31T02:13:53.968Z,17.17
2022-08-31T02:16:20.372Z,17.18
2022-08-31T02:18:46.817Z,17.19
2022-08-31T02:21:13.698Z,17.13
2022-08-31T02:23:40.948Z,17.11
2022-08-31T02:26:07.485Z,16.98
2022-08-31T02:28:34.055Z,16.91
2022-08-31T02:31:00.472Z,16.86
2022-08-31T02:33:27.073Z,16.66
2022-08-31T02:35:53.579Z,16.78
2022-08-31T02:38:22.838Z,16.74
2022-08-31T02:40:51.211Z,16.68
2022-08-31T02:43:24.559Z,16.67
2022-08-31T02:45:53.031Z,16.73
2022-08-31T02:48:20.837Z,16.79
2022-08-31T02:50:49.942Z,16.94
2022-08-31T02:53:18.758Z,16.99
2022-08-31T02:55:45.270Z,16.99
2022-08-31T02:58:12.423Z,16.92
2022-08-31T03:00:40.624Z,16.84
2022-08-31T03:03:07.029Z,16.87
2022-08-31T03:05:33.440Z,16.88
2022-08-31T03:07:59.806Z,16.88
2022-08-31T03:10:26.845Z,16.89
2022-08-31T03:12:53.691Z,16.79
2022-08-31T03:15:22.399Z,16.65
2022-08-31T03:17:48.796Z,16.67
2022-08-31T03:20:16.549Z,16.68
2022-08-31T03:22:45.446Z,16.75
2022-08-31T03:25:12.451Z,16.70
2022-08-31T03:27:39.045Z,16.69
2022-08-31T03:30:08.544Z,16.59
2022-08-31T03:32:35.009Z,16.56
2022-08-31T03:35:02.378Z,16.38
2022-08-31T03:37:29.017Z,16.51
2022-08-31T03:39:55.817Z,16.43
2022-08-31T03:42:22.178Z,16.46
2022-08-31T03:44:49.034Z,16.37
2022-08-31T03:47:16.676Z,16.33
2022-08-31T03:49:43.912Z,16.36
2022-08-31T03:52:10.813Z,16.38
2022-08-31T03:54:37.337Z,16.36
2022-08-31T03:57:07.660Z,16.30
2022-08-31T03:59:34.018Z,16.14
2022-08-31T04:02:00.510Z,16.24
2022-08-31T04:04:26.963Z,16.22
2022-08-31T04:06:53.342Z,16.15
2022-08-31T04:09:19.861Z,16.11
2022-08-31T04:11:46.221Z,16.10
2022-08-31T04:14:15.341Z,16.04
2022-08-31T04:16:43.700Z,15.96
2022-08-31T04:19:11.249Z,15.92
2022-08-31T04:21:37.846Z,15.93
2022-08-31T04:24:04.649Z,15.92
2022-08-31T04:26:36.329Z,15.94
2022-08-31T04:29:07.698Z,15.94
2022-08-31T04:31:37.936Z,15.95
2022-08-31T04:34:05.653Z,15.90
2022-08-31T04:36:32.598Z,15.99
2022-08-31T04:39:01.050Z,16.03
2022-08-31T04:41:29.668Z,16.03
2022-08-31T04:43:58.453Z,16.06
2022-08-31T04:46:25.734Z,16.08
2022-08-31T04:48:52.333Z,16.07
2022-08-31T04:51:22.403Z,16.08
2022-08-31T04:53:49.869Z,16.09
2022-08-31T04:56:20.421Z,16.10
2022-08-31T04:58:50.292Z,16.11
2022-08-31T05:01:20.164Z,16.00
2022-08-31T05:03:51.059Z,16.07
2022-08-31T05:06:19.843Z,15.79
2022-08-31T05:08:51.812Z,16.12
2022-08-31T05:11:24.280Z,16.17
2022-08-31T05:13:52.585Z,16.20
2022-08-31T05:16:19.870Z,16.24
2022-08-31T05:18:48.009Z,16.07
2022-08-31T05:21:20.161Z,16.26
2022-08-31T05:23:48.457Z,16.26
2022-08-31T05:26:23.576Z,16.29
2022-08-31T05:28:53.990Z,16.32
2022-08-31T05:31:21.505Z,16.33
2022-08-31T05:33:47.935Z,16.34
2022-08-31T05:36:14.637Z,16.43
2022-08-31T05:38:41.924Z,16.47
2022-08-31T05:41:08.658Z,16.52
2022-08-31T05:43:35.044Z,16.58
2022-08-31T05:46:04.576Z,16.65
2022-08-31T05:48:36.386Z,16.75
2022-08-31T05:51:06.862Z,16.83
2022-08-31T05:53:34.964Z,16.96
2022-08-31T05:56:06.629Z,17.11
2022-08-31T05:58:33.932Z,17.22
2022-08-31T06:01:01.363Z,17.31
2022-08-31T06:03:29.162Z,17.43
2022-08-31T06:05:55.508Z,17.58
2022-08-31T06:08:27.304Z,17.68
2022-08-31T06:11:00.737Z,17.75
2022-08-31T06:13:27.149Z,17.84
2022-08-31T06:15:53.604Z,17.96
2022-08-31T06:18:20.957Z,17.99
2022-08-31T06:20:47.834Z,18.05
2022-08-31T06:23:14.218Z,18.14
2022-08-31T06:25:40.617Z,18.19
2022-08-31T06:28:07.350Z,18.22
2022-08-31T06:30:54.328Z,18.32
2022-08-31T06:33:21.917Z,18.43
2022-08-31T06:35:48.250Z,18.44
2022-08-31T06:38:14.644Z,18.43
2022-08-31T06:40:41.013Z,18.38
2022-08-31T06:43:07.814Z,18.37
2022-08-31T06:45:34.165Z,18.36
2022-08-31T06:48:00.762Z,18.39
2022-08-31T06:50:27.645Z,18.45
2022-08-31T06:52:55.527Z,18.48
2022-08-31T06:55:22.365Z,18.42
2022-08-31T06:57:48.717Z,18.41
2022-08-31T07:00:15.385Z,18.44
2022-08-31T07:02:41.761Z,18.44
2022-08-31T07:05:11.505Z,18.45
2022-08-31T07:07:41.468Z,18.48
2022-08-31T07:10:10.420Z,18.58
2022-08-31T07:12:36.864Z,18.67
2022-08-31T07:15:03.613Z,18.76
2022-08-31T07:17:32.484Z,18.80
2022-08-31T07:19:58.820Z,18.87
2022-08-31T07:22:25.171Z,18.94
2022-08-31T07:24:51.534Z,18.94
2022-08-31T07:27:18.311Z,18.94
2022-08-31T07:29:44.817Z,18.82
2022-08-31T07:32:13.624Z,18.90
2022-08-31T07:34:40.316Z,18.93
2022-08-31T07:37:25.965Z,18.91
2022-08-31T07:40:11.391Z,18.89
2022-08-31T07:42:40.735Z,18.84
2022-08-31T07:45:12.934Z,18.75
2022-08-31T07:47:46.919Z,18.91
2022-08-31T07:50:15.715Z,18.93
2022-08-31T07:52:52.959Z,18.88
2022-08-31T07:55:22.447Z,18.97
2022-08-31T07:57:50.712Z,18.99
2022-08-31T08:00:21.359Z,19.01
2022-08-31T08:02:52.720Z,18.86
2022-08-31T08:05:27.546Z,18.99
2022-08-31T08:07:58.358Z,18.97
2022-08-31T08:10:26.142Z,19.05
2022-08-31T08:12:57.149Z,19.14
2022-08-31T08:15:25.025Z,19.16
2022-08-31T08:17:51.837Z,19.27
2022-08-31T08:20:19.384Z,19.29
2022-08-31T08:23:00.746Z,19.26
2022-08-31T08:25:27.158Z,19.18
2022-08-31T08:27:54.665Z,19.33
2022-08-31T08:30:21.658Z,19.50
2022-08-31T08:32:48.085Z,19.58
2022-08-31T08:35:14.635Z,19.79
2022-08-31T08:37:57.874Z,20.00
2022-08-31T08:40:43.127Z,20.18
2022-08-31T08:43:12.801Z,20.33
2022-08-31T08:45:40.161Z,20.31
2022-08-31T08:48:11.199Z,20.45
2022-08-31T08:50:40.401Z,20.77
2022-08-31T08:53:10.643Z,20.96
2022-08-31T08:55:39.771Z,21.29
2022-08-31T08:58:10.337Z,21.57
2022-08-31T09:00:46.424Z,21.82
2022-08-31T09:03:33.154Z,22.00
2022-08-31T09:06:40.533Z,22.43
2022-08-31T09:09:32.627Z,22.56
2022-08-31T09:12:30.744Z,22.85
2022-08-31T09:15:37.700Z,23.16
2022-08-31T09:18:15.066Z,23.61
2022-08-31T09:20:41.519Z,24.08
2022-08-31T09:23:08.172Z,24.34
2022-08-31T09:25:45.091Z,24.45
2022-08-31T09:28:14.858Z,24.70
2022-08-31T09:30:43.989Z,25.13
2022-08-31T09:33:21.825Z,25.33
2022-08-31T09:35:56.516Z,25.52
2022-08-31T09:38:29.910Z,25.70
2022-08-31T09:40:57.640Z,25.45
2022-08-31T09:43:24.853Z,26.01
2022-08-31T09:45:54.274Z,26.22
2022-08-31T09:48:51.549Z,26.28
2022-08-31T09:51:29.454Z,26.81
2022-08-31T09:54:25.897Z,26.74
2022-08-31T09:56:55.574Z,26.94
2022-08-31T09:59:31.156Z,27.47
2022-08-31T10:02:00.625Z,27.72
2022-08-31T10:04:36.554Z,27.77
2022-08-31T10:07:24.920Z,27.64
2022-08-31T10:09:59.482Z,27.27
2022-08-31T10:12:47.032Z,26.96
2022-08-31T10:15:31.911Z,27.61
2022-08-31T10:18:24.633Z,28.54
2022-08-31T10:20:59.508Z,29.56
2022-08-31T10:23:56.314Z,30.02
2022-08-31T10:26:35.886Z,30.53
2022-08-31T10:29:08.368Z,30.87
2022-08-31T10:31:45.281Z,30.70
2022-08-31T10:34:42.062Z,30.66
2022-08-31T10:37:15.988Z,30.37
2022-08-31T10:39:50.374Z,30.78
2022-08-31T10:42:38.304Z,30.85
2022-08-31T10:45:18.249Z,30.71
2022-08-31T10:47:49.092Z,29.49
2022-08-31T10:50:25.800Z,29.31
2022-08-31T10:53:17.299Z,29.87
2022-08-31T10:55:56.194Z,30.79
2022-08-31T10:58:34.660Z,31.32
2022-08-31T11:01:13.939Z,31.14
2022-08-31T11:03:52.390Z,30.36
2022-08-31T11:06:51.293Z,29.71
2022-08-31T11:09:26.348Z,29.80
2022-08-31T11:12:07.128Z,30.01
2022-08-31T11:14:36.601Z,29.46
2022-08-31T11:17:19.144Z,28.87
2022-08-31T11:20:33.426Z,28.31
2022-08-31T11:23:15.208Z,27.84
2022-08-31T11:26:23.996Z,27.49
2022-08-31T11:28:56.109Z,27.23
2022-08-31T11:31:27.205Z,27.12
2022-08-31T11:34:16.054Z,27.06
2022-08-31T11:36:45.585Z,27.14
2022-08-31T11:39:11.874Z,27.77
2022-08-31T11:41:46.709Z,29.02
2022-08-31T11:44:29.627Z,29.51
2022-08-31T11:47:13.000Z,29.44
2022-08-31T11:49:46.682Z,29.61
2022-08-31T11:52:29.695Z,29.72
2022-08-31T11:55:07.917Z,29.47
2022-08-31T11:58:07.141Z,29.02
2022-08-31T12:00:58.107Z,28.31
2022-08-31T12:03:38.767Z,27.88
2022-08-31T12:06:11.965Z,27.60
2022-08-31T12:08:54.519Z,27.29
2022-08-31T12:11:40.869Z,27.08
2022-08-31T12:14:33.064Z,26.73
2022-08-31T12:17:31.045Z,26.58
2022-08-31T12:20:12.312Z,26.49
2022-08-31T12:23:33.018Z,26.37
2022-08-31T12:26:40.737Z,26.17
2022-08-31T12:29:27.351Z,25.85
2022-08-31T12:32:11.051Z,25.77
2022-08-31T12:34:57.385Z,25.65
2022-08-31T12:37:23.775Z,25.54
2022-08-31T12:40:21.861Z,25.53
2022-08-31T12:43:18.230Z,25.52
2022-08-31T12:46:12.577Z,25.53
2022-08-31T12:48:53.940Z,25.37
2022-08-31T12:51:23.244Z,25.48
2022-08-31T12:54:14.586Z,25.67
2022-08-31T12:57:20.182Z,25.77
2022-08-31T13:00:30.145Z,25.67
2022-08-31T13:03:07.371Z,25.58
2022-08-31T13:05:36.767Z,25.61
2022-08-31T13:08:22.567Z,25.67
2022-08-31T13:10:49.131Z,25.63
2022-08-31T13:13:29.580Z,25.74
2022-08-31T13:16:04.398Z,25.73
2022-08-31T13:18:31.379Z,25.61
2022-08-31T13:21:06.534Z,25.61
2022-08-31T13:23:39.620Z,25.95
2022-08-31T13:26:20.501Z,26.18
2022-08-31T13:28:59.632Z,26.31
2022-08-31T13:31:32.797Z,26.35
2022-08-31T13:34:07.178Z,26.33
2022-08-31T13:36:40.024Z,26.40
2022-08-31T13:39:21.802Z,26.54
2022-08-31T13:42:33.075Z,26.75
2022-08-31T13:45:07.568Z,26.75
2022-08-31T13:47:48.888Z,26.64
2022-08-31T13:50:27.775Z,26.60
2022-08-31T13:53:25.350Z,26.52
2022-08-31T13:55:48.638Z,26.52
2022-08-31T13:58:31.651Z,26.46
2022-08-31T14:01:17.864Z,26.45
2022-08-31T14:03:57.112Z,26.34
2022-08-31T14:06:28.129Z,26.29
2022-08-31T14:09:05.651Z,26.21
2022-08-31T14:11:33.569Z,26.32
2022-08-31T14:14:07.306Z,26.48
2022-08-31T14:16:51.886Z,26.47
2022-08-31T14:19:32.822Z,26.42
2022-08-31T14:22:16.239Z,26.35
2022-08-31T14:24:43.597Z,26.41
2022-08-31T14:27:11.988Z,26.52
2022-08-31T14:29:40.893Z,26.54
2022-08-31T14:32:07.451Z,26.56
2022-08-31T14:34:48.505Z,26.56
2022-08-31T14:37:23.785Z,26.42
2022-08-31T14:40:07.731Z,26.01
2022-08-31T14:42:37.328Z,26.27
2022-08-31T14:45:05.516Z,26.50
2022-08-31T14:47:36.077Z,26.78
2022-08-31T14:50:07.089Z,26.97
2022-08-31T14:52:42.493Z,26.77
2022-08-31T14:55:11.032Z,26.96
2022-08-31T14:57:42.049Z,26.98
2022-08-31T15:00:11.604Z,26.84
2022-08-31T15:02:38.644Z,26.98
2022-08-31T15:05:09.469Z,26.77
2022-08-31T15:07:40.265Z,26.67
2022-08-31T15:10:12.666Z,26.62
2022-08-31T15:12:39.226Z,26.31
2022-08-31T15:15:07.490Z,26.14
2022-08-31T15:17:35.950Z,26.07
2022-08-31T15:20:04.351Z,26.06
2022-08-31T15:22:31.276Z,26.07
2022-08-31T15:24:58.215Z,26.27
2022-08-31T15:27:29.175Z,26.40
2022-08-31T15:29:59.130Z,26.36
2022-08-31T15:32:25.657Z,26.21
2022-08-31T15:34:57.689Z,26.27
2022-08-31T15:37:28.074Z,26.38
2022-08-31T15:39:59.810Z,26.41
2022-08-31T15:42:26.252Z,26.31
2022-08-31T15:45:00.114Z,26.30
2022-08-31T15:47:48.839Z,26.01
2022-08-31T15:50:19.178Z,25.98
2022-08-31T15:52:51.983Z,26.08
2022-08-31T15:55:26.386Z,26.02
2022-08-31T15:57:54.769Z,25.92
2022-08-31T16:00:26.146Z,25.71
2022-08-31T16:02:57.357Z,25.76
2022-08-31T16:05:28.244Z,25.61
2022-08-31T16:07:57.161Z,25.41
2022-08-31T16:10:23.557Z,25.18
2022-08-31T16:12:51.854Z,24.93
2022-08-31T16:15:19.650Z,24.89
2022-08-31T16:17:47.683Z,24.87
2022-08-31T16:20:14.641Z,24.80
2022-08-31T16:22:43.010Z,24.74
2022-08-31T16:25:14.618Z,24.67
2022-08-31T16:27:43.501Z,24.60
2022-08-31T16:30:12.319Z,24.45
2022-08-31T16:32:39.177Z,24.30
2022-08-31T16:35:06.628Z,24.38
2022-08-31T16:37:33.678Z,24.35
2022-08-31T16:40:00.295Z,24.24
2022-08-31T16:42:27.204Z,24.14
2022-08-31T16:44:58.489Z,24.09
2022-08-31T16:47:28.966Z,23.93
2022-08-31T16:49:55.717Z,23.91
2022-08-31T16:52:26.535Z,23.84
2022-08-31T16:54:54.834Z,23.81
2022-08-31T16:57:26.930Z,23.74
2022-08-31T16:59:55.129Z,23.67
2022-08-31T17:02:22.939Z,23.60
2022-08-31T17:04:52.913Z,23.59
2022-08-31T17:07:20.003Z,23.58
2022-08-31T17:09:46.520Z,23.58
2022-08-31T17:12:16.976Z,23.52
2022-08-31T17:14:48.122Z,23.54
2022-08-31T17:17:16.821Z,23.57
2022-08-31T17:19:44.297Z,23.58
2022-08-31T17:22:16.942Z,23.61
2022-08-31T17:24:46.569Z,23.61
2022-08-31T17:27:16.771Z,23.57
2022-08-31T17:29:47.901Z,23.52
2022-08-31T17:32:16.348Z,23.55
2022-08-31T17:34:43.063Z,23.52
2022-08-31T17:37:14.301Z,23.45
2022-08-31T17:39:45.092Z,23.31
2022-08-31T17:42:14.988Z,23.24
2022-08-31T17:44:44.398Z,23.12
2022-08-31T17:47:11.551Z,23.01
2022-08-31T17:49:42.132Z,22.88
2022-08-31T17:52:11.269Z,22.77
2022-08-31T17:54:41.928Z,22.72
2022-08-31T17:57:19.809Z,22.61
2022-08-31T17:59:48.926Z,22.56
2022-08-31T18:02:18.911Z,22.50
2022-08-31T18:04:45.454Z,22.45
2022-08-31T18:07:12.177Z,22.43
2022-08-31T18:09:41.573Z,22.38
2022-08-31T18:12:09.209Z,22.35
2022-08-31T18:14:38.016Z,22.27
2022-08-31T18:17:08.392Z,22.26
2022-08-31T18:19:35.664Z,22.22
2022-08-31T18:22:03.058Z,22.14
2022-08-31T18:24:35.166Z,22.17
2022-08-31T18:27:03.999Z,22.12
2022-08-31T18:29:34.153Z,22.10
2022-08-31T18:32:05.130Z,22.07
2022-08-31T18:34:33.976Z,22.00
2022-08-31T18:37:02.191Z,21.94
2022-08-31T18:39:51.584Z,21.89
2022-08-31T18:42:37.854Z,21.85
2022-08-31T18:45:18.472Z,21.76
2022-08-31T18:48:07.114Z,21.71
2022-08-31T18:50:36.960Z,21.63
2022-08-31T18:53:08.172Z,21.54
2022-08-31T18:55:40.768Z,21.53
2022-08-31T18:58:07.161Z,21.47
2022-08-31T19:00:33.638Z,21.38
2022-08-31T19:03:01.966Z,21.23
2022-08-31T19:05:29.277Z,21.24
2022-08-31T19:07:57.893Z,21.17
2022-08-31T19:10:25.368Z,21.11
2022-08-31T19:12:52.197Z,21.04
2022-08-31T19:15:18.632Z,20.97
2022-08-31T19:17:49.132Z,20.90
2022-08-31T19:20:16.415Z,20.77
2022-08-31T19:22:42.905Z,20.86
2022-08-31T19:25:11.941Z,20.84
2022-08-31T19:27:39.081Z,20.79
2022-08-31T19:30:07.840Z,20.71
2022-08-31T19:32:36.722Z,20.64
2022-08-31T19:35:03.972Z,20.62
2022-08-31T19:37:30.337Z,20.60
2022-08-31T19:39:56.660Z,20.56
2022-08-31T19:42:40.257Z,20.53
2022-08-31T19:45:24.230Z,20.49
2022-08-31T19:47:51.204Z,20.41
2022-08-31T19:50:17.828Z,20.48
2022-08-31T19:52:44.426Z,20.45
2022-08-31T19:55:11.378Z,20.39
2022-08-31T19:57:38.938Z,20.32
2022-08-31T20:00:07.684Z,20.24
2022-08-31T20:02:35.177Z,20.20
2022-08-31T20:05:06.090Z,20.12
2022-08-31T20:07:34.213Z,20.03
2022-08-31T20:10:02.567Z,19.96
2022-08-31T20:12:29.670Z,19.96
2022-08-31T20:14:56.075Z,19.93
2022-08-31T20:17:22.473Z,19.88
2022-08-31T20:19:49.450Z,19.86
2022-08-31T20:22:15.807Z,19.82
2022-08-31T20:24:43.894Z,19.75
2022-08-31T20:27:15.029Z,19.66
2022-08-31T20:29:41.485Z,19.62
2022-08-31T20:32:08.067Z,19.55
2022-08-31T20:34:34.781Z,19.48
2022-08-31T20:37:02.428Z,19.44
2022-08-31T20:39:30.849Z,19.41
2022-08-31T20:41:58.931Z,19.33
2022-08-31T20:44:27.342Z,19.31
2022-08-31T20:47:15.384Z,19.26
2022-08-31T20:49:44.851Z,19.22
2022-08-31T20:52:13.440Z,19.18
2022-08-31T20:54:42.892Z,19.15
2022-08-31T20:57:10.393Z,19.13
2022-08-31T20:59:37.852Z,19.08
2022-08-31T21:02:07.201Z,19.05
2022-08-31T21:04:37.503Z,19.01
2022-08-31T21:07:05.621Z,18.99
2022-08-31T21:09:32.433Z,18.94
2022-08-31T21:11:59.718Z,18.85
2022-08-31T21:14:28.045Z,18.95
2022-08-31T21:16:55.914Z,18.97
2022-08-31T21:19:23.645Z,18.78
2022-08-31T21:21:52.458Z,18.95
2022-08-31T21:24:20.629Z,18.97
2022-08-31T21:26:47.229Z,18.95
2022-08-31T21:29:17.102Z,18.95
2022-08-31T21:31:51.968Z,19.00
2022-08-31T21:34:22.457Z,18.98
2022-08-31T21:36:49.677Z,18.98
2022-08-31T21:39:19.040Z,18.87
2022-08-31T21:41:46.432Z,18.80
2022-08-31T21:44:16.405Z,18.88
2022-08-31T21:46:49.817Z,18.85
2022-08-31T21:49:17.909Z,18.83
2022-08-31T21:51:56.320Z,18.82
2022-08-31T21:54:26.024Z,18.76
2022-08-31T21:56:55.433Z,18.71
2022-08-31T21:59:23.914Z,18.68
2022-08-31T22:01:55.311Z,18.63
2022-08-31T22:04:23.000Z,18.55
2022-08-31T22:06:49.645Z,18.48
2022-08-31T22:09:19.610Z,18.45
2022-08-31T22:11:50.575Z,18.29
2022-08-31T22:14:20.241Z,18.30
2022-08-31T22:16:48.399Z,18.24
2022-08-31T22:19:20.789Z,18.19
2022-08-31T22:21:50.151Z,18.09
2022-08-31T22:24:26.907Z,17.99
2022-08-31T22:26:53.997Z,17.92
2022-08-31T22:29:24.184Z,17.85
2022-08-31T22:31:52.708Z,17.67
2022-08-31T22:34:20.998Z,17.70
2022-08-31T22:36:52.062Z,17.65
2022-08-31T22:39:22.893Z,17.58
2022-08-31T22:41:49.884Z,17.56
2022-08-31T22:44:18.537Z,17.44
2022-08-31T22:46:46.655Z,17.46
2022-08-31T22:49:14.519Z,17.48
2022-08-31T22:51:43.074Z,17.42
2022-08-31T22:54:10.704Z,17.44
2022-08-31T22:56:39.031Z,17.39
2022-08-31T22:59:12.935Z,17.43
2022-08-31T23:01:54.681Z,17.40
2022-08-31T23:04:24.074Z,17.37
2022-08-31T23:06:51.647Z,17.25
2022-08-31T23:09:21.073Z,17.35
2022-08-31T23:11:49.056Z,17.28
2022-08-31T23:14:15.413Z,17.32
2022-08-31T23:16:47.356Z,17.31
2022-08-31T23:19:22.670Z,17.27
2022-08-31T23:21:56.936Z,17.25
2022-08-31T23:24:34.358Z,17.23
2022-08-31T23:27:04.177Z,17.20
2022-08-31T23:29:39.904Z,17.19
2022-08-31T23:32:11.021Z,17.15
2022-08-31T23:34:38.389Z,17.09
2022-08-31T23:37:08.488Z,17.16
2022-08-31T23:39:37.375Z,17.18
2022-08-31T23:42:03.948Z,17.20
2022-08-31T23:44:30.633Z,17.20
2022-08-31T23:46:57.169Z,17.21
2022-08-31T23:49:23.515Z,17.29
2022-08-31T23:51:49.953Z,17.32
2022-08-31T23:54:18.131Z,17.33
2022-08-31T23:56:46.825Z,17.36
2022-08-31T23:59:18.749Z,17.39
